Norwalk, Connecticut
Current Conditions -  °F | °C
As of 3:52 PM on Saturday 22 Nov 2014 (Local Time) from KBDR Reporting Station
Overcast Overcast  
Wind Chill: 34°   Ceiling: 9000
Heat Index: 42°   Visibility: 10mi
Dew Point: 20°   Wind: 17mph
Humidity: 41%   Direction: 230°SW
Pressure: 30.25"   Gusts: NA
Location:  41.11°N, 73.41°W
Report Text: KBDR 222052Z AUTO 23015KT 10SM OVC090 06/M07 A3025 RMK AO2 SLP245 T00561067 56024 TSNO
Loading
Personal Weather Stations






























Interactive Weather Map New forecast layout! Learn more

10-Day Weather Forecast

Advertisements
Track Severe Weather on mobile